^^
Station Historical Data
Daily Summary for June 13, 2017 Units:  Both    English   Metric
« Previous Day
Next Day »
Daily Weekly Monthly Yearly Custom
  High: Low: Average:
Temperature: 74.7 °F /  23.7 °C 44.4 °F /  6.9 °C 58.2 °F /  14.6 °C
Dew Point: 41.7 °F /  5.4 °C 34.7 °F /  1.5 °C 37.8 °F /  3.2 °C
Humidity: 72% 28% 49%
Wind Speed: 4.0mph /  6.4km/h - 0.3mph /  0.5km/h
Wind Gust: 7.0mph /  11.3km/h - -
Wind- - SW
Pressure: 30.35 in /  1027.7 hPa 30.21 in /  1022.9 hPa -
Precipitation: 0.00 in /  0 mm    
Historical Graphs
 
 
Tabular Data for June 13, 2017
Time Temperature Dew Point Pressure Wind Wind Speed Wind Gust Humidity Rainfall Rate (Hourly) solar Conditions
00:05 50.5 °F /  10.3 °C 37.6 °F /  3.1 °C 30.30in /  1026hPa Calm   1.0mph /  1.6km/h 61% 0.00in /  0mm 0.0 W/m2
00:11 50.5 °F /  10.3 °C 37.6 °F /  3.1 °C 30.30in /  1026hPa ESE 2.9mph /  4.7km/h 3.0mph /  4.8km/h 61% 0.00in /  0mm 0.0 W/m2
00:17 50.5 °F /  10.3 °C 37.6 °F /  3.1 °C 30.30in /  1026hPa Calm   1.0mph /  1.6km/h 61% 0.00in /  0mm 0.0 W/m2
00:23 50.4 °F /  10.2 °C 37.4 °F /  3 °C 30.30in /  1026hPa Calm   1.0mph /  1.6km/h 61% 0.00in /  0mm 0.0 W/m2
00:29 50.4 °F /  10.2 °C 37.4 °F /  3 °C 30.30in /  1026hPa Calm   2.0mph /  3.2km/h 61% 0.00in /  0mm 0.0 W/m2
00:35 50.2 °F /  10.1 °C 37.2 °F /  2.9 °C 30.30in /  1026hPa Calm   4.0mph /  6.4km/h 61% 0.00in /  0mm 0.0 W/m2
00:41 50.0 °F /  10 °C 37.6 °F /  3.1 °C 30.30in /  1026hPa Calm   1.0mph /  1.6km/h 62% 0.00in /  0mm 0.0 W/m2
00:47 50.0 °F /  10 °C 37.6 °F /  3.1 °C 30.30in /  1026hPa Calm   1.0mph /  1.6km/h 62% 0.00in /  0mm 0.0 W/m2
00:53 50.0 °F /  10 °C 37.6 °F /  3.1 °C 30.30in /  1026hPa Calm     62% 0.00in /  0mm 0.0 W/m2
00:59 49.8 °F /  9.9 °C 37.4 °F /  3 °C 30.30in /  1026hPa Calm   1.0mph /  1.6km/h 62% 0.00in /  0mm 0.0 W/m2
01:05 49.8 °F /  9.9 °C 37.4 °F /  3 °C 30.30in /  1026hPa Calm     62% 0.00in /  0mm 0.0 W/m2
01:11 49.6 °F /  9.8 °C 37.2 °F /  2.9 °C 30.31in /  1026.3hPa Calm   2.0mph /  3.2km/h 62% 0.00in /  0mm 0.0 W/m2
01:17 49.6 °F /  9.8 °C 37.6 °F /  3.1 °C 30.31in /  1026.3hPa Calm     63% 0.00in /  0mm 0.0 W/m2
01:23 49.5 °F /  9.7 °C 37.4 °F /  3 °C 30.30in /  1026hPa Calm     63% 0.00in /  0mm 0.0 W/m2
01:29 49.3 °F /  9.6 °C 37.2 °F /  2.9 °C 30.30in /  1026hPa Calm   1.0mph /  1.6km/h 63% 0.00in /  0mm 0.0 W/m2
01:35 49.3 °F /  9.6 °C 37.6 °F /  3.1 °C 30.30in /  1026hPa Calm   2.0mph /  3.2km/h 64% 0.00in /  0mm 0.0 W/m2
01:41 49.1 °F /  9.5 °C 37.4 °F /  3 °C 30.30in /  1026hPa Calm     64% 0.00in /  0mm 0.0 W/m2
01:47 49.1 °F /  9.5 °C 37.4 °F /  3 °C 30.30in /  1026hPa SE 0.9mph /  1.4km/h 1.0mph /  1.6km/h 64% 0.00in /  0mm 0.0 W/m2
01:53 49.1 °F /  9.5 °C 37.4 °F /  3 °C 30.30in /  1026hPa Calm   1.0mph /  1.6km/h 64% 0.00in /  0mm 0.0 W/m2
01:59 48.9 °F /  9.4 °C 37.2 °F /  2.9 °C 30.29in /  1025.6hPa Calm   1.0mph /  1.6km/h 64% 0.00in /  0mm 0.0 W/m2
02:05 48.9 °F /  9.4 °C 37.2 °F /  2.9 °C 30.29in /  1025.6hPa Calm     64% 0.00in /  0mm 0.0 W/m2
02:11 48.9 °F /  9.4 °C 37.2 °F /  2.9 °C 30.29in /  1025.6hPa Calm     64% 0.00in /  0mm 0.0 W/m2
02:17 48.7 °F /  9.3 °C 37.0 °F /  2.8 °C 30.29in /  1025.6hPa Calm     64% 0.00in /  0mm 0.0 W/m2
02:23 48.6 °F /  9.2 °C 36.9 °F /  2.7 °C 30.29in /  1025.6hPa Calm   2.0mph /  3.2km/h 64% 0.00in /  0mm 0.0 W/m2
02:29 48.6 °F /  9.2 °C 37.4 °F /  3 °C 30.29in /  1025.6hPa Calm     65% 0.00in /  0mm 0.0 W/m2
02:35 48.4 °F /  9.1 °C 37.2 °F /  2.9 °C 30.29in /  1025.6hPa Calm     65% 0.00in /  0mm 0.0 W/m2
02:41 48.2 °F /  9 °C 37.0 °F /  2.8 °C 30.29in /  1025.6hPa East 0.9mph /  1.4km/h 1.0mph /  1.6km/h 65% 0.00in /  0mm 0.0 W/m2
02:47 48.0 °F /  8.9 °C 36.9 °F /  2.7 °C 30.29in /  1025.6hPa Calm     65% 0.00in /  0mm 0.0 W/m2
02:53 48.0 °F /  8.9 °C 36.9 °F /  2.7 °C 30.29in /  1025.6hPa East 0.9mph /  1.4km/h 2.0mph /  3.2km/h 65% 0.00in /  0mm 0.0 W/m2
02:59 47.8 °F /  8.8 °C 37.0 °F /  2.8 °C 30.29in /  1025.6hPa Calm   1.0mph /  1.6km/h 66% 0.00in /  0mm 0.0 W/m2
03:05 47.7 °F /  8.7 °C 36.9 °F /  2.7 °C 30.29in /  1025.6hPa Calm     66% 0.00in /  0mm 0.0 W/m2
03:11 47.5 °F /  8.6 °C 36.7 °F /  2.6 °C 30.29in /  1025.6hPa Calm     66% 0.00in /  0mm 0.0 W/m2
03:17 47.1 °F /  8.4 °C 36.7 °F /  2.6 °C 30.29in /  1025.6hPa Calm   1.0mph /  1.6km/h 67% 0.00in /  0mm 0.0 W/m2
03:23 46.8 °F /  8.2 °C 36.3 °F /  2.4 °C 30.29in /  1025.6hPa Calm     67% 0.00in /  0mm 0.0 W/m2
03:29 46.6 °F /  8.1 °C 36.5 °F /  2.5 °C 30.29in /  1025.6hPa Calm     68% 0.00in /  0mm 0.0 W/m2
03:36 46.4 °F /  8 °C 36.5 °F /  2.5 °C 30.29in /  1025.6hPa Calm     68% 0.00in /  0mm 0.0 W/m2
03:42 46.2 °F /  7.9 °C 36.7 °F /  2.6 °C 30.29in /  1025.6hPa Calm     69% 0.00in /  0mm 0.0 W/m2
03:48 46.2 °F /  7.9 °C 36.7 °F /  2.6 °C 30.29in /  1025.6hPa Calm     69% 0.00in /  0mm 0.0 W/m2
03:56 46.0 °F /  7.8 °C 36.5 °F /  2.5 °C 30.29in /  1025.6hPa Calm   1.0mph /  1.6km/h 69% 0.00in /  0mm 0.0 W/m2
04:02 46.2 °F /  7.9 °C 36.7 °F /  2.6 °C 30.29in /  1025.6hPa Calm   1.0mph /  1.6km/h 69% 0.00in /  0mm 0.0 W/m2
04:08 46.4 °F /  8 °C 36.5 °F /  2.5 °C 30.29in /  1025.6hPa Calm     68% 0.00in /  0mm 0.0 W/m2
04:14 46.4 °F /  8 °C 36.5 °F /  2.5 °C 30.29in /  1025.6hPa Calm     68% 0.00in /  0mm 0.0 W/m2
04:20 46.4 °F /  8 °C 36.5 °F /  2.5 °C 30.29in /  1025.6hPa Calm   3.0mph /  4.8km/h 68% 0.00in /  0mm 0.0 W/m2
04:26 46.6 °F /  8.1 °C 36.5 °F /  2.5 °C 30.29in /  1025.6hPa Calm   1.0mph /  1.6km/h 68% 0.00in /  0mm 0.0 W/m2
04:32 46.6 °F /  8.1 °C 36.5 °F /  2.5 °C 30.29in /  1025.6hPa Calm   2.0mph /  3.2km/h 68% 0.00in /  0mm 0.0 W/m2
04:38 46.4 °F /  8 °C 36.5 °F /  2.5 °C 30.30in /  1026hPa East 0.9mph /  1.4km/h 1.0mph /  1.6km/h 68% 0.00in /  0mm 0.0 W/m2
04:44 46.4 °F /  8 °C 36.5 °F /  2.5 °C 30.30in /  1026hPa Calm     68% 0.00in /  0mm 0.0 W/m2
04:50 46.2 °F /  7.9 °C 36.3 °F /  2.4 °C 30.30in /  1026hPa Calm     68% 0.00in /  0mm 0.0 W/m2
04:56 46.0 °F /  7.8 °C 36.1 °F /  2.3 °C 30.30in /  1026hPa Calm     68% 0.00in /  0mm 0.0 W/m2
05:03 46.0 °F /  7.8 °C 36.1 °F /  2.3 °C 30.30in /  1026hPa Calm   1.0mph /  1.6km/h 68% 0.00in /  0mm 0.0 W/m2
05:09 45.9 °F /  7.7 °C 36.3 °F /  2.4 °C 30.30in /  1026hPa Calm     69% 0.00in /  0mm 0.0 W/m2
05:15 45.9 °F /  7.7 °C 36.0 °F /  2.2 °C 30.30in /  1026hPa Calm     68% 0.00in /  0mm 0.0 W/m2
05:21 45.5 °F /  7.5 °C 36.0 °F /  2.2 °C 30.30in /  1026hPa Calm   1.0mph /  1.6km/h 69% 0.00in /  0mm 0.0 W/m2
05:27 45.1 °F /  7.3 °C 35.6 °F /  2 °C 30.31in /  1026.3hPa Calm     69% 0.00in /  0mm 0.0 W/m2
05:33 45.0 °F /  7.2 °C 35.8 °F /  2.1 °C 30.31in /  1026.3hPa Calm     70% 0.00in /  0mm 0.0 W/m2
05:39 44.8 °F /  7.1 °C 36.0 °F /  2.2 °C 30.31in /  1026.3hPa Calm     71% 0.00in /  0mm 0.0 W/m2
05:45 44.6 °F /  7 °C 35.4 °F /  1.9 °C 30.31in /  1026.3hPa Calm     70% 0.00in /  0mm 0.0 W/m2
05:51 44.4 °F /  6.9 °C 35.6 °F /  2 °C 30.31in /  1026.3hPa Calm     71% 0.00in /  0mm 0.0 W/m2
05:57 44.4 °F /  6.9 °C 35.6 °F /  2 °C 30.31in /  1026.3hPa NE 0.9mph /  1.4km/h 3.0mph /  4.8km/h 71% 0.00in /  0mm 0.0 W/m2
06:04 44.4 °F /  6.9 °C 36.0 °F /  2.2 °C 30.31in /  1026.3hPa Calm     72% 0.00in /  0mm 0.0 W/m2
06:10 44.8 °F /  7.1 °C 36.0 °F /  2.2 °C 30.31in /  1026.3hPa Calm     71% 0.00in /  0mm 0.0 W/m2
06:16 44.8 °F /  7.1 °C 36.0 °F /  2.2 °C 30.31in /  1026.3hPa Calm     71% 0.00in /  0mm 0.0 W/m2
06:22 44.8 °F /  7.1 °C 36.0 °F /  2.2 °C 30.31in /  1026.3hPa Calm     71% 0.00in /  0mm 0.0 W/m2
06:28 44.8 °F /  7.1 °C 36.0 °F /  2.2 °C 30.31in /  1026.3hPa Calm   2.0mph /  3.2km/h 71% 0.00in /  0mm 0.0 W/m2
06:34 44.8 °F /  7.1 °C 36.0 °F /  2.2 °C 30.31in /  1026.3hPa Calm     71% 0.00in /  0mm 5.0 W/m2
06:40 44.8 °F /  7.1 °C 36.0 °F /  2.2 °C 30.32in /  1026.6hPa Calm   2.0mph /  3.2km/h 71% 0.00in /  0mm 7.0 W/m2
06:46 44.8 °F /  7.1 °C 36.0 °F /  2.2 °C 30.32in /  1026.6hPa Calm   2.0mph /  3.2km/h 71% 0.00in /  0mm 11.0 W/m2
06:52 44.8 °F /  7.1 °C 36.3 °F /  2.4 °C 30.32in /  1026.6hPa Calm   1.0mph /  1.6km/h 72% 0.00in /  0mm 12.0 W/m2
06:58 44.8 °F /  7.1 °C 36.3 °F /  2.4 °C 30.32in /  1026.6hPa East 0.9mph /  1.4km/h 2.0mph /  3.2km/h 72% 0.00in /  0mm 14.0 W/m2
07:04 45.0 °F /  7.2 °C 36.5 °F /  2.5 °C 30.32in /  1026.6hPa Calm     72% 0.00in /  0mm 16.0 W/m2
07:10 45.1 °F /  7.3 °C 36.3 °F /  2.4 °C 30.32in /  1026.6hPa Calm     71% 0.00in /  0mm 18.0 W/m2
07:16 45.7 °F /  7.6 °C 36.9 °F /  2.7 °C 30.33in /  1027hPa Calm   2.0mph /  3.2km/h 71% 0.00in /  0mm 19.0 W/m2
07:22 45.9 °F /  7.7 °C 37.0 °F /  2.8 °C 30.33in /  1027hPa ESE 2.0mph /  3.2km/h 2.0mph /  3.2km/h 71% 0.00in /  0mm 19.0 W/m2
07:29 46.2 °F /  7.9 °C 37.4 °F /  3 °C 30.33in /  1027hPa Calm     71% 0.00in /  0mm 21.0 W/m2
07:35 46.6 °F /  8.1 °C 37.8 °F /  3.2 °C 30.33in /  1027hPa Calm   1.0mph /  1.6km/h 71% 0.00in /  0mm 23.0 W/m2
07:41 46.8 °F /  8.2 °C 37.6 °F /  3.1 °C 30.33in /  1027hPa Calm     70% 0.00in /  0mm 25.0 W/m2
07:47 47.1 °F /  8.4 °C 38.1 °F /  3.4 °C 30.33in /  1027hPa Calm   1.0mph /  1.6km/h 71% 0.00in /  0mm 26.0 W/m2
07:53 48.0 °F /  8.9 °C 38.7 °F /  3.7 °C 30.33in /  1027hPa Calm   1.0mph /  1.6km/h 70% 0.00in /  0mm 134.0 W/m2
07:59 49.6 °F /  9.8 °C 39.6 °F /  4.2 °C 30.33in /  1027hPa Calm   1.0mph /  1.6km/h 68% 0.00in /  0mm 265.0 W/m2
08:05 51.3 °F /  10.7 °C 39.9 °F /  4.4 °C 30.34in /  1027.3hPa Calm     65% 0.00in /  0mm 288.0 W/m2
08:11 52.9 °F /  11.6 °C 40.6 °F /  4.8 °C 30.34in /  1027.3hPa Calm     63% 0.00in /  0mm 309.0 W/m2
08:17 54.1 °F /  12.3 °C 41.0 °F /  5 °C 30.34in /  1027.3hPa Calm     61% 0.00in /  0mm 329.0 W/m2
08:29 57.7 °F /  14.3 °C 41.2 °F /  5.1 °C 30.34in /  1027.3hPa Calm     54% 0.00in /  0mm 366.0 W/m2
08:35 59.0 °F /  15 °C 40.5 °F /  4.7 °C 30.34in /  1027.3hPa Calm     50% 0.00in /  0mm 383.0 W/m2
08:41 59.7 °F /  15.4 °C 39.9 °F /  4.4 °C 30.35in /  1027.7hPa Calm     48% 0.00in /  0mm 403.0 W/m2
08:47 60.4 °F /  15.8 °C 40.6 °F /  4.8 °C 30.35in /  1027.7hPa Calm     48% 0.00in /  0mm 420.0 W/m2
08:53 61.3 °F /  16.3 °C 40.5 °F /  4.7 °C 30.34in /  1027.3hPa Calm   1.0mph /  1.6km/h 46% 0.00in /  0mm 438.0 W/m2
08:59 62.2 °F /  16.8 °C 40.6 °F /  4.8 °C 30.35in /  1027.7hPa Calm   1.0mph /  1.6km/h 45% 0.00in /  0mm 454.0 W/m2
09:05 63.3 °F /  17.4 °C 40.5 °F /  4.7 °C 30.34in /  1027.3hPa Calm     43% 0.00in /  0mm 471.0 W/m2
09:11 64.8 °F /  18.2 °C 40.5 °F /  4.7 °C 30.35in /  1027.7hPa NNW 0.9mph /  1.4km/h 2.0mph /  3.2km/h 41% 0.00in /  0mm 487.0 W/m2
09:17 65.5 °F /  18.6 °C 40.5 °F /  4.7 °C 30.35in /  1027.7hPa Calm   1.0mph /  1.6km/h 40% 0.00in /  0mm 501.0 W/m2
09:24 66.4 °F /  19.1 °C 40.6 °F /  4.8 °C 30.34in /  1027.3hPa Calm   2.0mph /  3.2km/h 39% 0.00in /  0mm 515.0 W/m2
09:29 66.7 °F /  19.3 °C 41.0 °F /  5 °C 30.34in /  1027.3hPa North 0.9mph /  1.4km/h 1.0mph /  1.6km/h 39% 0.00in /  0mm 527.0 W/m2
09:36 67.1 °F /  19.5 °C 41.4 °F /  5.2 °C 30.34in /  1027.3hPa Calm   1.0mph /  1.6km/h 39% 0.00in /  0mm 541.0 W/m2
09:42 67.3 °F /  19.6 °C 41.5 °F /  5.3 °C 30.34in /  1027.3hPa Calm   1.0mph /  1.6km/h 39% 0.00in /  0mm 554.0 W/m2
09:48 67.5 °F /  19.7 °C 41.7 °F /  5.4 °C 30.34in /  1027.3hPa Calm   2.0mph /  3.2km/h 39% 0.00in /  0mm 566.0 W/m2
09:54 67.6 °F /  19.8 °C 41.2 °F /  5.1 °C 30.34in /  1027.3hPa NW 0.9mph /  1.4km/h 3.0mph /  4.8km/h 38% 0.00in /  0mm 577.0 W/m2
10:00 68.0 °F /  20 °C 40.8 °F /  4.9 °C 30.34in /  1027.3hPa Calm   1.0mph /  1.6km/h 37% 0.00in /  0mm 591.0 W/m2
10:06 68.2 °F /  20.1 °C 41.0 °F /  5 °C 30.34in /  1027.3hPa West 0.9mph /  1.4km/h 3.0mph /  4.8km/h 37% 0.00in /  0mm 598.0 W/m2
10:12 68.2 °F /  20.1 °C 41.0 °F /  5 °C 30.34in /  1027.3hPa Calm   1.0mph /  1.6km/h 37% 0.00in /  0mm 608.0 W/m2
10:18 68.5 °F /  20.3 °C 40.5 °F /  4.7 °C 30.33in /  1027hPa Calm   3.0mph /  4.8km/h 36% 0.00in /  0mm 617.0 W/m2
10:24 69.1 °F /  20.6 °C 40.3 °F /  4.6 °C 30.33in /  1027hPa Calm     35% 0.00in /  0mm 629.0 W/m2
10:31 69.3 °F /  20.7 °C 40.5 °F /  4.7 °C 30.33in /  1027hPa West 2.0mph /  3.2km/h 2.0mph /  3.2km/h 35% 0.00in /  0mm 633.0 W/m2
10:37 69.1 °F /  20.6 °C 41.0 °F /  5 °C 30.33in /  1027hPa Calm   2.0mph /  3.2km/h 36% 0.00in /  0mm 635.0 W/m2
10:43 69.1 °F /  20.6 °C 41.0 °F /  5 °C 30.33in /  1027hPa WNW 2.9mph /  4.7km/h 4.0mph /  6.4km/h 36% 0.00in /  0mm 643.0 W/m2
10:49 68.7 °F /  20.4 °C 39.9 °F /  4.4 °C 30.32in /  1026.6hPa Calm   2.0mph /  3.2km/h 35% 0.00in /  0mm 652.0 W/m2
10:55 68.7 °F /  20.4 °C 39.9 °F /  4.4 °C 30.32in /  1026.6hPa Calm   3.0mph /  4.8km/h 35% 0.00in /  0mm 656.0 W/m2
11:01 68.7 °F /  20.4 °C 40.6 °F /  4.8 °C 30.32in /  1026.6hPa Calm   1.0mph /  1.6km/h 36% 0.00in /  0mm 663.0 W/m2
11:07 69.6 °F /  20.9 °C 39.9 °F /  4.4 °C 30.31in /  1026.3hPa North 0.9mph /  1.4km/h 2.0mph /  3.2km/h 34% 0.00in /  0mm 664.0 W/m2
11:13 70.2 °F /  21.2 °C 39.7 °F /  4.3 °C 30.31in /  1026.3hPa Calm   1.0mph /  1.6km/h 33% 0.00in /  0mm 668.0 W/m2
11:19 70.5 °F /  21.4 °C 40.1 °F /  4.5 °C 30.31in /  1026.3hPa NW 2.0mph /  3.2km/h 2.0mph /  3.2km/h 33% 0.00in /  0mm 671.0 W/m2
11:26 71.1 °F /  21.7 °C 40.5 °F /  4.7 °C 30.31in /  1026.3hPa Calm   2.0mph /  3.2km/h 33% 0.00in /  0mm 677.0 W/m2
11:32 71.1 °F /  21.7 °C 40.5 °F /  4.7 °C 30.30in /  1026hPa NNW 2.0mph /  3.2km/h 3.0mph /  4.8km/h 33% 0.00in /  0mm 682.0 W/m2
11:38 71.4 °F /  21.9 °C 40.8 °F /  4.9 °C 30.30in /  1026hPa Calm   1.0mph /  1.6km/h 33% 0.00in /  0mm 677.0 W/m2
11:44 72.0 °F /  22.2 °C 39.7 °F /  4.3 °C 30.30in /  1026hPa Calm   4.0mph /  6.4km/h 31% 0.00in /  0mm 679.0 W/m2
11:50 72.1 °F /  22.3 °C 39.0 °F /  3.9 °C 30.29in /  1025.6hPa Calm   3.0mph /  4.8km/h 30% 0.00in /  0mm 679.0 W/m2
11:56 72.1 °F /  22.3 °C 39.0 °F /  3.9 °C 30.29in /  1025.6hPa Calm   2.0mph /  3.2km/h 30% 0.00in /  0mm 675.0 W/m2
12:02 72.3 °F /  22.4 °C 39.9 °F /  4.4 °C 30.29in /  1025.6hPa Calm   5.0mph /  8km/h 31% 0.00in /  0mm 671.0 W/m2
12:08 72.5 °F /  22.5 °C 39.4 °F /  4.1 °C 30.28in /  1025.3hPa Calm   1.0mph /  1.6km/h 30% 0.00in /  0mm 670.0 W/m2
12:15 72.7 °F /  22.6 °C 38.7 °F /  3.7 °C 30.28in /  1025.3hPa Calm   2.0mph /  3.2km/h 29% 0.00in /  0mm 673.0 W/m2
12:21 72.3 °F /  22.4 °C 38.3 °F /  3.5 °C 30.27in /  1024.9hPa North 0.9mph /  1.4km/h 3.0mph /  4.8km/h 29% 0.00in /  0mm 670.0 W/m2
12:27 72.9 °F /  22.7 °C 39.6 °F /  4.2 °C 30.27in /  1024.9hPa West 0.9mph /  1.4km/h 4.0mph /  6.4km/h 30% 0.00in /  0mm 659.0 W/m2
12:33 72.9 °F /  22.7 °C 38.7 °F /  3.7 °C 30.26in /  1024.6hPa Calm   2.0mph /  3.2km/h 29% 0.00in /  0mm 663.0 W/m2
12:39 72.9 °F /  22.7 °C 39.6 °F /  4.2 °C 30.26in /  1024.6hPa WSW 0.9mph /  1.4km/h 7.0mph /  11.3km/h 30% 0.00in /  0mm 657.0 W/m2
12:45 72.5 °F /  22.5 °C 38.5 °F /  3.6 °C 30.25in /  1024.3hPa SSW 2.0mph /  3.2km/h 3.0mph /  4.8km/h 29% 0.00in /  0mm 652.0 W/m2
12:51 72.1 °F /  22.3 °C 38.1 °F /  3.4 °C 30.25in /  1024.3hPa South 0.9mph /  1.4km/h 3.0mph /  4.8km/h 29% 0.00in /  0mm 643.0 W/m2
12:57 72.1 °F /  22.3 °C 39.0 °F /  3.9 °C 30.25in /  1024.3hPa SW 2.9mph /  4.7km/h 4.0mph /  6.4km/h 30% 0.00in /  0mm 626.0 W/m2
13:04 72.3 °F /  22.4 °C 38.3 °F /  3.5 °C 30.25in /  1024.3hPa WSW 4.0mph /  6.4km/h 5.0mph /  8km/h 29% 0.00in /  0mm 621.0 W/m2
13:10 72.3 °F /  22.4 °C 39.2 °F /  4 °C 30.24in /  1023.9hPa Calm   4.0mph /  6.4km/h 30% 0.00in /  0mm 612.0 W/m2
13:16 72.9 °F /  22.7 °C 38.7 °F /  3.7 °C 30.24in /  1023.9hPa Calm   5.0mph /  8km/h 29% 0.00in /  0mm 605.0 W/m2
13:22 73.0 °F /  22.8 °C 38.8 °F /  3.8 °C 30.23in /  1023.6hPa West 2.0mph /  3.2km/h 3.0mph /  4.8km/h 29% 0.00in /  0mm 596.0 W/m2
13:28 73.0 °F /  22.8 °C 38.8 °F /  3.8 °C 30.23in /  1023.6hPa WSW 0.9mph /  1.4km/h 3.0mph /  4.8km/h 29% 0.00in /  0mm 584.0 W/m2
13:34 73.2 °F /  22.9 °C 39.0 °F /  3.9 °C 30.23in /  1023.6hPa SW 0.9mph /  1.4km/h 6.0mph /  9.7km/h 29% 0.00in /  0mm 582.0 W/m2
13:40 73.2 °F /  22.9 °C 39.0 °F /  3.9 °C 30.23in /  1023.6hPa South 4.0mph /  6.4km/h 4.0mph /  6.4km/h 29% 0.00in /  0mm 571.0 W/m2
13:46 73.0 °F /  22.8 °C 37.9 °F /  3.3 °C 30.23in /  1023.6hPa Calm   3.0mph /  4.8km/h 28% 0.00in /  0mm 559.0 W/m2
13:52 72.9 °F /  22.7 °C 38.7 °F /  3.7 °C 30.23in /  1023.6hPa Calm   1.0mph /  1.6km/h 29% 0.00in /  0mm 543.0 W/m2
13:59 72.9 °F /  22.7 °C 38.7 °F /  3.7 °C 30.22in /  1023.2hPa WSW 2.0mph /  3.2km/h 4.0mph /  6.4km/h 29% 0.00in /  0mm 531.0 W/m2
14:05 73.0 °F /  22.8 °C 38.8 °F /  3.8 °C 30.22in /  1023.2hPa Calm   1.0mph /  1.6km/h 29% 0.00in /  0mm 519.0 W/m2
14:11 73.6 °F /  23.1 °C 38.5 °F /  3.6 °C 30.22in /  1023.2hPa NNW 0.9mph /  1.4km/h 6.0mph /  9.7km/h 28% 0.00in /  0mm 506.0 W/m2
14:17 73.9 °F /  23.3 °C 38.8 °F /  3.8 °C 30.22in /  1023.2hPa Calm   2.0mph /  3.2km/h 28% 0.00in /  0mm 489.0 W/m2
14:23 74.5 °F /  23.6 °C 39.2 °F /  4 °C 30.21in /  1022.9hPa West 0.9mph /  1.4km/h 5.0mph /  8km/h 28% 0.00in /  0mm 473.0 W/m2
14:29 74.5 °F /  23.6 °C 39.2 °F /  4 °C 30.21in /  1022.9hPa WSW 2.9mph /  4.7km/h 5.0mph /  8km/h 28% 0.00in /  0mm 454.0 W/m2
14:35 74.5 °F /  23.6 °C 39.2 °F /  4 °C 30.21in /  1022.9hPa NW 4.0mph /  6.4km/h 4.0mph /  6.4km/h 28% 0.00in /  0mm 443.0 W/m2
14:41 74.7 °F /  23.7 °C 39.4 °F /  4.1 °C 30.21in /  1022.9hPa WSW 4.0mph /  6.4km/h 7.0mph /  11.3km/h 28% 0.00in /  0mm 424.0 W/m2
14:47 74.7 °F /  23.7 °C 39.4 °F /  4.1 °C 30.21in /  1022.9hPa SW 2.0mph /  3.2km/h 7.0mph /  11.3km/h 28% 0.00in /  0mm 408.0 W/m2
14:54 74.3 °F /  23.5 °C 39.9 °F /  4.4 °C 30.21in /  1022.9hPa Calm   5.0mph /  8km/h 29% 0.00in /  0mm 392.0 W/m2
15:00 73.9 °F /  23.3 °C 39.7 °F /  4.3 °C 30.21in /  1022.9hPa Calm   6.0mph /  9.7km/h 29% 0.00in /  0mm 374.0 W/m2
15:06 73.9 °F /  23.3 °C 40.5 °F /  4.7 °C 30.21in /  1022.9hPa Calm   4.0mph /  6.4km/h 30% 0.00in /  0mm 348.0 W/m2
15:12 73.9 °F /  23.3 °C 40.5 °F /  4.7 °C 30.21in /  1022.9hPa WSW 0.9mph /  1.4km/h 3.0mph /  4.8km/h 30% 0.00in /  0mm 330.0 W/m2
15:18 73.9 °F /  23.3 °C 40.5 °F /  4.7 °C 30.21in /  1022.9hPa Calm   3.0mph /  4.8km/h 30% 0.00in /  0mm 241.0 W/m2
15:24 73.8 °F /  23.2 °C 40.5 °F /  4.7 °C 30.21in /  1022.9hPa Calm   5.0mph /  8km/h 30% 0.00in /  0mm 53.0 W/m2
15:30 73.6 °F /  23.1 °C 40.3 °F /  4.6 °C 30.21in /  1022.9hPa WNW 2.9mph /  4.7km/h 3.0mph /  4.8km/h 30% 0.00in /  0mm 49.0 W/m2
15:37 73.0 °F /  22.8 °C 40.6 °F /  4.8 °C 30.21in /  1022.9hPa NNW 0.9mph /  1.4km/h 2.0mph /  3.2km/h 31% 0.00in /  0mm 47.0 W/m2
15:43 72.9 °F /  22.7 °C 40.5 °F /  4.7 °C 30.21in /  1022.9hPa NW 2.0mph /  3.2km/h 6.0mph /  9.7km/h 31% 0.00in /  0mm 44.0 W/m2
15:49 72.9 °F /  22.7 °C 40.5 °F /  4.7 °C 30.21in /  1022.9hPa Calm   2.0mph /  3.2km/h 31% 0.00in /  0mm 42.0 W/m2
15:55 72.7 °F /  22.6 °C 40.3 °F /  4.6 °C 30.21in /  1022.9hPa Calm     31% 0.00in /  0mm 42.0 W/m2
16:01 72.3 °F /  22.4 °C 39.9 °F /  4.4 °C 30.21in /  1022.9hPa Calm   3.0mph /  4.8km/h 31% 0.00in /  0mm 37.0 W/m2
16:07 72.0 °F /  22.2 °C 40.5 °F /  4.7 °C 30.21in /  1022.9hPa West 2.0mph /  3.2km/h 3.0mph /  4.8km/h 32% 0.00in /  0mm 33.0 W/m2
16:13 71.8 °F /  22.1 °C 40.3 °F /  4.6 °C 30.21in /  1022.9hPa Calm     32% 0.00in /  0mm 30.0 W/m2
16:19 71.4 °F /  21.9 °C 40.1 °F /  4.5 °C 30.22in /  1023.2hPa Calm   3.0mph /  4.8km/h 32% 0.00in /  0mm 28.0 W/m2
16:26 71.1 °F /  21.7 °C 39.7 °F /  4.3 °C 30.22in /  1023.2hPa Calm   1.0mph /  1.6km/h 32% 0.00in /  0mm 26.0 W/m2
16:32 70.9 °F /  21.6 °C 39.6 °F /  4.2 °C 30.22in /  1023.2hPa Calm   2.0mph /  3.2km/h 32% 0.00in /  0mm 25.0 W/m2
16:38 70.3 °F /  21.3 °C 39.0 °F /  3.9 °C 30.22in /  1023.2hPa Calm   1.0mph /  1.6km/h 32% 0.00in /  0mm 21.0 W/m2
16:44 70.0 °F /  21.1 °C 38.8 °F /  3.8 °C 30.23in /  1023.6hPa Calm   1.0mph /  1.6km/h 32% 0.00in /  0mm 21.0 W/m2
16:50 69.6 °F /  20.9 °C 38.5 °F /  3.6 °C 30.23in /  1023.6hPa NNW 0.9mph /  1.4km/h 3.0mph /  4.8km/h 32% 0.00in /  0mm 18.0 W/m2
16:56 69.3 °F /  20.7 °C 38.8 °F /  3.8 °C 30.23in /  1023.6hPa Calm     33% 0.00in /  0mm 14.0 W/m2
17:02 68.9 °F /  20.5 °C 38.7 °F /  3.7 °C 30.23in /  1023.6hPa NW 0.9mph /  1.4km/h 1.0mph /  1.6km/h 33% 0.00in /  0mm 12.0 W/m2
17:08 68.5 °F /  20.3 °C 38.3 °F /  3.5 °C 30.23in /  1023.6hPa Calm   2.0mph /  3.2km/h 33% 0.00in /  0mm 7.0 W/m2
17:14 68.0 °F /  20 °C 37.8 °F /  3.2 °C 30.24in /  1023.9hPa Calm   1.0mph /  1.6km/h 33% 0.00in /  0mm 5.0 W/m2
17:21 67.5 °F /  19.7 °C 38.1 °F /  3.4 °C 30.24in /  1023.9hPa Calm     34% 0.00in /  0mm 0.0 W/m2
17:27 66.9 °F /  19.4 °C 38.3 °F /  3.5 °C 30.24in /  1023.9hPa Calm     35% 0.00in /  0mm 0.0 W/m2
17:33 66.4 °F /  19.1 °C 37.9 °F /  3.3 °C 30.24in /  1023.9hPa Calm     35% 0.00in /  0mm 0.0 W/m2
17:39 65.7 °F /  18.7 °C 37.9 °F /  3.3 °C 30.25in /  1024.3hPa Calm     36% 0.00in /  0mm 0.0 W/m2
17:51 64.2 °F /  17.9 °C 37.4 °F /  3 °C 30.25in /  1024.3hPa Calm     37% 0.00in /  0mm 0.0 W/m2
17:57 63.3 °F /  17.4 °C 37.2 °F /  2.9 °C 30.25in /  1024.3hPa Calm     38% 0.00in /  0mm 0.0 W/m2
18:04 63.0 °F /  17.2 °C 37.6 °F /  3.1 °C 30.25in /  1024.3hPa Calm     39% 0.00in /  0mm 0.0 W/m2
18:10 62.2 °F /  16.8 °C 37.6 °F /  3.1 °C 30.25in /  1024.3hPa Calm     40% 0.00in /  0mm 0.0 W/m2
18:16 61.7 °F /  16.5 °C 37.8 °F /  3.2 °C 30.25in /  1024.3hPa Calm     41% 0.00in /  0mm 0.0 W/m2
18:22 61.2 °F /  16.2 °C 37.9 °F /  3.3 °C 30.25in /  1024.3hPa Calm     42% 0.00in /  0mm 0.0 W/m2
18:28 60.4 °F /  15.8 °C 37.2 °F /  2.9 °C 30.26in /  1024.6hPa Calm     42% 0.00in /  0mm 0.0 W/m2
18:34 59.7 °F /  15.4 °C 37.2 °F /  2.9 °C 30.25in /  1024.3hPa Calm     43% 0.00in /  0mm 0.0 W/m2
18:40 59.4 °F /  15.2 °C 37.4 °F /  3 °C 30.26in /  1024.6hPa Calm     44% 0.00in /  0mm 0.0 W/m2
18:47 58.6 °F /  14.8 °C 36.9 °F /  2.7 °C 30.26in /  1024.6hPa Calm     44% 0.00in /  0mm 0.0 W/m2
18:53 58.3 °F /  14.6 °C 37.0 °F /  2.8 °C 30.27in /  1024.9hPa Calm     45% 0.00in /  0mm 0.0 W/m2
18:59 57.7 °F /  14.3 °C 37.0 °F /  2.8 °C 30.27in /  1024.9hPa Calm     46% 0.00in /  0mm 0.0 W/m2
19:05 57.6 °F /  14.2 °C 36.9 °F /  2.7 °C 30.27in /  1024.9hPa Calm     46% 0.00in /  0mm 0.0 W/m2
19:11 57.2 °F /  14 °C 37.2 °F /  2.9 °C 30.28in /  1025.3hPa Calm     47% 0.00in /  0mm 0.0 W/m2
19:17 56.8 °F /  13.8 °C 36.9 °F /  2.7 °C 30.28in /  1025.3hPa Calm     47% 0.00in /  0mm 0.0 W/m2
19:23 56.5 °F /  13.6 °C 37.0 °F /  2.8 °C 30.28in /  1025.3hPa Calm     48% 0.00in /  0mm 0.0 W/m2
19:29 56.1 °F /  13.4 °C 37.2 °F /  2.9 °C 30.28in /  1025.3hPa Calm     49% 0.00in /  0mm 0.0 W/m2
19:36 55.9 °F /  13.3 °C 37.0 °F /  2.8 °C 30.28in /  1025.3hPa Calm     49% 0.00in /  0mm 0.0 W/m2
19:42 55.6 °F /  13.1 °C 36.1 °F /  2.3 °C 30.29in /  1025.6hPa Calm     48% 0.00in /  0mm 0.0 W/m2
19:48 55.2 °F /  12.9 °C 36.3 °F /  2.4 °C 30.29in /  1025.6hPa Calm     49% 0.00in /  0mm 0.0 W/m2
19:54 55.0 °F /  12.8 °C 36.7 °F /  2.6 °C 30.29in /  1025.6hPa Calm     50% 0.00in /  0mm 0.0 W/m2
20:00 55.0 °F /  12.8 °C 36.7 °F /  2.6 °C 30.29in /  1025.6hPa Calm     50% 0.00in /  0mm 0.0 W/m2
20:06 55.0 °F /  12.8 °C 36.7 °F /  2.6 °C 30.29in /  1025.6hPa Calm     50% 0.00in /  0mm 0.0 W/m2
20:13 54.9 °F /  12.7 °C 36.1 °F /  2.3 °C 30.29in /  1025.6hPa Calm     49% 0.00in /  0mm 0.0 W/m2
20:19 54.3 °F /  12.4 °C 36.1 °F /  2.3 °C 30.29in /  1025.6hPa Calm     50% 0.00in /  0mm 0.0 W/m2
20:25 54.1 °F /  12.3 °C 36.3 °F /  2.4 °C 30.29in /  1025.6hPa SE 2.0mph /  3.2km/h 3.0mph /  4.8km/h 51% 0.00in /  0mm 0.0 W/m2
20:31 54.1 °F /  12.3 °C 36.3 °F /  2.4 °C 30.29in /  1025.6hPa Calm   2.0mph /  3.2km/h 51% 0.00in /  0mm 0.0 W/m2
20:43 54.0 °F /  12.2 °C 36.3 °F /  2.4 °C 30.29in /  1025.6hPa Calm   1.0mph /  1.6km/h 51% 0.00in /  0mm 0.0 W/m2
20:49 53.8 °F /  12.1 °C 36.1 °F /  2.3 °C 30.29in /  1025.6hPa Calm     51% 0.00in /  0mm 0.0 W/m2
20:56 53.8 °F /  12.1 °C 36.1 °F /  2.3 °C 30.29in /  1025.6hPa Calm   2.0mph /  3.2km/h 51% 0.00in /  0mm 0.0 W/m2
21:02 53.6 °F /  12 °C 36.0 °F /  2.2 °C 30.29in /  1025.6hPa Calm   1.0mph /  1.6km/h 51% 0.00in /  0mm 0.0 W/m2
21:08 53.8 °F /  12.1 °C 36.1 °F /  2.3 °C 30.29in /  1025.6hPa ESE 0.9mph /  1.4km/h 1.0mph /  1.6km/h 51% 0.00in /  0mm 0.0 W/m2
21:14 53.4 °F /  11.9 °C 35.8 °F /  2.1 °C 30.29in /  1025.6hPa Calm     51% 0.00in /  0mm 0.0 W/m2
21:20 53.2 °F /  11.8 °C 36.1 °F /  2.3 °C 30.29in /  1025.6hPa Calm     52% 0.00in /  0mm 0.0 W/m2
21:26 53.2 °F /  11.8 °C 36.1 °F /  2.3 °C 30.29in /  1025.6hPa Calm     52% 0.00in /  0mm 0.0 W/m2
21:32 53.2 °F /  11.8 °C 35.6 °F /  2 °C 30.29in /  1025.6hPa Calm   1.0mph /  1.6km/h 51% 0.00in /  0mm 0.0 W/m2
21:38 53.1 °F /  11.7 °C 35.4 °F /  1.9 °C 30.29in /  1025.6hPa Calm   2.0mph /  3.2km/h 51% 0.00in /  0mm 0.0 W/m2
21:44 53.1 °F /  11.7 °C 36.0 °F /  2.2 °C 30.29in /  1025.6hPa Calm   3.0mph /  4.8km/h 52% 0.00in /  0mm 0.0 W/m2
21:51 53.1 °F /  11.7 °C 36.0 °F /  2.2 °C 30.29in /  1025.6hPa ESE 0.9mph /  1.4km/h 4.0mph /  6.4km/h 52% 0.00in /  0mm 0.0 W/m2
21:57 52.7 °F /  11.5 °C 35.6 °F /  2 °C 30.29in /  1025.6hPa Calm   1.0mph /  1.6km/h 52% 0.00in /  0mm 0.0 W/m2
22:03 52.5 °F /  11.4 °C 35.4 °F /  1.9 °C 30.28in /  1025.3hPa Calm   4.0mph /  6.4km/h 52% 0.00in /  0mm 0.0 W/m2
22:09 52.5 °F /  11.4 °C 35.4 °F /  1.9 °C 30.29in /  1025.6hPa Calm   1.0mph /  1.6km/h 52% 0.00in /  0mm 0.0 W/m2
22:15 52.5 °F /  11.4 °C 35.4 °F /  1.9 °C 30.29in /  1025.6hPa ESE 0.9mph /  1.4km/h 2.0mph /  3.2km/h 52% 0.00in /  0mm 0.0 W/m2
22:21 52.5 °F /  11.4 °C 35.4 °F /  1.9 °C 30.29in /  1025.6hPa Calm   1.0mph /  1.6km/h 52% 0.00in /  0mm 0.0 W/m2
22:28 52.5 °F /  11.4 °C 35.4 °F /  1.9 °C 30.29in /  1025.6hPa Calm   4.0mph /  6.4km/h 52% 0.00in /  0mm 0.0 W/m2
22:34 52.5 °F /  11.4 °C 35.4 °F /  1.9 °C 30.29in /  1025.6hPa Calm     52% 0.00in /  0mm 0.0 W/m2
22:40 52.5 °F /  11.4 °C 35.4 °F /  1.9 °C 30.29in /  1025.6hPa Calm   1.0mph /  1.6km/h 52% 0.00in /  0mm 0.0 W/m2
22:46 52.3 °F /  11.3 °C 35.2 °F /  1.8 °C 30.29in /  1025.6hPa Calm   1.0mph /  1.6km/h 52% 0.00in /  0mm 0.0 W/m2
22:52 52.3 °F /  11.3 °C 35.2 °F /  1.8 °C 30.28in /  1025.3hPa Calm     52% 0.00in /  0mm 0.0 W/m2
22:58 52.0 °F /  11.1 °C 35.4 °F /  1.9 °C 30.28in /  1025.3hPa Calm     53% 0.00in /  0mm 0.0 W/m2
23:04 51.4 °F /  10.8 °C 34.9 °F /  1.6 °C 30.29in /  1025.6hPa Calm   2.0mph /  3.2km/h 53% 0.00in /  0mm 0.0 W/m2
23:10 51.4 °F /  10.8 °C 34.9 °F /  1.6 °C 30.29in /  1025.6hPa Calm   4.0mph /  6.4km/h 53% 0.00in /  0mm 0.0 W/m2
23:16 51.3 °F /  10.7 °C 35.2 °F /  1.8 °C 30.29in /  1025.6hPa Calm   1.0mph /  1.6km/h 54% 0.00in /  0mm 0.0 W/m2
23:22 51.1 °F /  10.6 °C 35.1 °F /  1.7 °C 30.29in /  1025.6hPa Calm   2.0mph /  3.2km/h 54% 0.00in /  0mm 0.0 W/m2
23:28 50.7 °F /  10.4 °C 34.7 °F /  1.5 °C 30.29in /  1025.6hPa Calm   3.0mph /  4.8km/h 54% 0.00in /  0mm 0.0 W/m2
23:35 50.5 °F /  10.3 °C 35.1 °F /  1.7 °C 30.29in /  1025.6hPa Calm   1.0mph /  1.6km/h 55% 0.00in /  0mm 0.0 W/m2
23:41 50.4 °F /  10.2 °C 34.9 °F /  1.6 °C 30.28in /  1025.3hPa Calm   1.0mph /  1.6km/h 55% 0.00in /  0mm 0.0 W/m2
23:47 50.4 °F /  10.2 °C 35.2 °F /  1.8 °C 30.28in /  1025.3hPa Calm     56% 0.00in /  0mm 0.0 W/m2
23:53 50.2 °F /  10.1 °C 35.1 °F /  1.7 °C 30.28in /  1025.3hPa Calm   1.0mph /  1.6km/h 56% 0.00in /  0mm 0.0 W/m2
23:59 50.2 °F /  10.1 °C 35.6 °F /  2 °C 30.28in /  1025.3hPa Calm     57% 0.00in /  0mm 0.0 W/m2
Olympia, Windhoek, Namibia
Compliments of Weather Underground - 3 mb